Language selection

Features

My Weather Profile Weather Topics  | 

West Brevoort - southern half: Past 24 Hour Conditions

 

Arviat Airport

04:00 PM CST 14 December 2019
Disclaimer

This table is a summary of hourly weather conditions for the past 24 hours.
Please note that these observations might not always be representative of weather conditions over their associated marine area.

Date / Time
(CST)
Wind(knots) Conditions Visibility(km) Pressure(kPa) Air tempC) Relative humidity(%) Dew pointC) Wind Chill
14 December 2019
16:00 W 5 Clear 16 100.8 -25 75 -29 -33
15:00 W 8 Mainly Clear 24 100.9 -24 74 -28 -34
14:00 W 9 Sunny 24 100.9 -25 74 -28 -35
13:00 W 10 Sunny 24 100.9 -24 73 -28 -35
12:00 W 12 Sunny 24 100.9 -24 72 -28 -37
11:00 W 13 Sunny 24 101.0 -25 74 -28 -37
10:00 WSW 8 Sunny 24 101.0 -26 76 -29 -35
9:00 WSW 8 Clear 24 101.1 -26 77 -29 -36
8:00 WSW 7 Clear 16 101.1 -26 78 -29 -36
7:00 SW 6 Clear 16 101.1 -26 78 -29 -35
6:00 SW 7 Clear 16 101.2 -28 78 -30 -38
5:00 SW 8 Clear 16 101.2 -27 78 -29 -37
4:00 WSW 7 Clear 16 101.3 -27 78 -29 -36
3:00 W 8 Clear 16 101.3 -27 77 -30 -37
2:00 W 11 Clear 16 101.4 -27 77 -30 -39
1:00 W 9 Clear 16 101.4 -27 76 -30 -38
0:00 WNW 9 Clear 16 101.4 -26 76 -29 -37
13 December 2019
23:00 WNW 10 Clear 16 101.5 -27 76 -30 -39
22:00 W 8 Clear 16 101.5 -28 75 -31 -38
21:00 W 9 Clear 16 101.5 -29 76 -32 -41
20:00 W 8 Clear 16 101.6 -28 75 -32 -39
19:00 W 10 Clear 16 101.6 -28 75 -31 -40
18:00 W 9 Clear 16 101.6 -29 75 -32 -40
17:00 WNW 10 Clear 24 101.6 -28 75 -31 -40
16:00 WNW 8 Mainly Clear 24 101.7 -30 74 -33 -41

Zoom-in to make a selection

Map of Hudson - Hudson Bay marine weather areas Arviat Airport Baker Lake Airport Chesterfield Inlet Airport Coral Harbour Airport Rankin Inlet Airport Sanikiluaq Airport Whale Cove Airport Cape Dorset Airport Iqaluit Airport Wager Bay Kimmirut Airport Churchill Airport Fort Severn Airport Peawanuck Airport Moosonee Airport Eastmain Airport La Grande Rivière Airport Waskaganish Airport Wemindji Airport Akulivik Airport Inukjuak Airport Ivujivik Airport Kuujjuarapik Airport Puvirnituq Airport Umiujaq Airport Aupaluk Airport Kangiqsujuaq Airport Kangirsuk Airport Kangiqsualujjuaq Airport Kuujjuaq Airport Quaqtaq Airport Salluit Airport Tasiujaq Airport Cape Kakkiviak
Legend:
buoy Buoy
land station Land Station

Hudson - Hudson Bay Area

Another Region

What we are doing

Date modified: